sensor_id;sensor_type;location;lat;lon;timestamp;temperature;humidity
9389;DHT22;4734;52.778;6.798;2024-03-29T00:01:54;8.60;99.90
9389;DHT22;4734;52.778;6.798;2024-03-29T00:04:39;8.60;99.90
9389;DHT22;4734;52.778;6.798;2024-03-29T00:07:23;8.60;99.90
9389;DHT22;4734;52.778;6.798;2024-03-29T00:10:10;8.60;99.90
9389;DHT22;4734;52.778;6.798;2024-03-29T00:12:54;8.60;99.90
9389;DHT22;4734;52.778;6.798;2024-03-29T00:15:45;8.60;99.90
9389;DHT22;4734;52.778;6.798;2024-03-29T00:18:30;8.60;99.90
9389;DHT22;4734;52.778;6.798;2024-03-29T00:21:15;8.60;99.90
9389;DHT22;4734;52.778;6.798;2024-03-29T00:23:59;8.60;99.90
9389;DHT22;4734;52.778;6.798;2024-03-29T00:26:45;8.50;99.90
9389;DHT22;4734;52.778;6.798;2024-03-29T00:29:30;8.50;99.90
9389;DHT22;4734;52.778;6.798;2024-03-29T00:32:14;8.50;99.90
9389;DHT22;4734;52.778;6.798;2024-03-29T00:34:59;8.50;99.90
9389;DHT22;4734;52.778;6.798;2024-03-29T00:37:44;8.50;99.90
9389;DHT22;4734;52.778;6.798;2024-03-29T00:40:28;8.50;99.90
9389;DHT22;4734;52.778;6.798;2024-03-29T00:43:15;8.50;99.90
9389;DHT22;4734;52.778;6.798;2024-03-29T00:45:59;8.50;99.90
9389;DHT22;4734;52.778;6.798;2024-03-29T00:48:43;8.50;99.90
9389;DHT22;4734;52.778;6.798;2024-03-29T00:51:28;8.50;99.90
9389;DHT22;4734;52.778;6.798;2024-03-29T00:54:13;8.50;99.90
9389;DHT22;4734;52.778;6.798;2024-03-29T00:56:57;8.50;99.90
9389;DHT22;4734;52.778;6.798;2024-03-29T00:59:44;8.40;99.90
9389;DHT22;4734;52.778;6.798;2024-03-29T01:02:29;8.40;99.90
9389;DHT22;4734;52.778;6.798;2024-03-29T01:05:14;8.40;99.90
9389;DHT22;4734;52.778;6.798;2024-03-29T01:07:58;8.40;99.90
9389;DHT22;4734;52.778;6.798;2024-03-29T01:10:43;8.40;99.90
9389;DHT22;4734;52.778;6.798;2024-03-29T01:13:27;8.40;99.90
9389;DHT22;4734;52.778;6.798;2024-03-29T01:16:14;8.40;99.90
9389;DHT22;4734;52.778;6.798;2024-03-29T01:18:59;8.40;99.90
9389;DHT22;4734;52.778;6.798;2024-03-29T01:21:43;8.40;99.90
9389;DHT22;4734;52.778;6.798;2024-03-29T01:24:28;8.30;99.90
9389;DHT22;4734;52.778;6.798;2024-03-29T01:27:13;8.40;99.90
9389;DHT22;4734;52.778;6.798;2024-03-29T01:29:57;8.40;99.90
9389;DHT22;4734;52.778;6.798;2024-03-29T01:32:43;8.40;99.90
9389;DHT22;4734;52.778;6.798;2024-03-29T01:35:28;8.40;99.90
9389;DHT22;4734;52.778;6.798;2024-03-29T01:38:14;8.30;99.90
9389;DHT22;4734;52.778;6.798;2024-03-29T01:40:59;8.30;99.90
9389;DHT22;4734;52.778;6.798;2024-03-29T01:43:43;8.30;99.90
9389;DHT22;4734;52.778;6.798;2024-03-29T01:46:29;8.20;99.90
9389;DHT22;4734;52.778;6.798;2024-03-29T01:49:16;8.30;99.90
9389;DHT22;4734;52.778;6.798;2024-03-29T01:52:04;8.20;99.90
9389;DHT22;4734;52.778;6.798;2024-03-29T01:54:50;8.20;99.90
9389;DHT22;4734;52.778;6.798;2024-03-29T01:57:35;8.20;99.90
9389;DHT22;4734;52.778;6.798;2024-03-29T02:00:21;8.20;99.90
9389;DHT22;4734;52.778;6.798;2024-03-29T02:03:07;8.20;99.90
9389;DHT22;4734;52.778;6.798;2024-03-29T02:05:55;8.20;99.90
9389;DHT22;4734;52.778;6.798;2024-03-29T02:08:41;8.20;99.90
9389;DHT22;4734;52.778;6.798;2024-03-29T02:11:27;8.20;99.90
9389;DHT22;4734;52.778;6.798;2024-03-29T02:14:13;8.20;99.90
9389;DHT22;4734;52.778;6.798;2024-03-29T02:16:58;8.20;99.90
9389;DHT22;4734;52.778;6.798;2024-03-29T02:19:44;8.20;99.90
9389;DHT22;4734;52.778;6.798;2024-03-29T02:22:32;8.20;99.90
9389;DHT22;4734;52.778;6.798;2024-03-29T02:25:22;8.20;99.90
9389;DHT22;4734;52.778;6.798;2024-03-29T02:28:07;8.20;99.90
9389;DHT22;4734;52.778;6.798;2024-03-29T02:30:53;8.20;99.90
9389;DHT22;4734;52.778;6.798;2024-03-29T02:33:38;8.10;99.90
9389;DHT22;4734;52.778;6.798;2024-03-29T02:36:24;8.20;99.90
9389;DHT22;4734;52.778;6.798;2024-03-29T02:39:09;8.10;99.90
9389;DHT22;4734;52.778;6.798;2024-03-29T02:41:56;8.10;99.90
9389;DHT22;4734;52.778;6.798;2024-03-29T02:44:42;8.10;99.90
9389;DHT22;4734;52.778;6.798;2024-03-29T02:47:27;8.10;99.90
9389;DHT22;4734;52.778;6.798;2024-03-29T02:50:14;8.10;99.90
9389;DHT22;4734;52.778;6.798;2024-03-29T02:53:00;8.10;99.90
9389;DHT22;4734;52.778;6.798;2024-03-29T02:55:46;8.10;99.90
9389;DHT22;4734;52.778;6.798;2024-03-29T02:58:32;8.10;99.90
9389;DHT22;4734;52.778;6.798;2024-03-29T03:01:18;8.10;99.90
9389;DHT22;4734;52.778;6.798;2024-03-29T03:04:03;8.10;99.90
9389;DHT22;4734;52.778;6.798;2024-03-29T03:06:48;8.10;99.90
9389;DHT22;4734;52.778;6.798;2024-03-29T03:09:37;8.10;99.90
9389;DHT22;4734;52.778;6.798;2024-03-29T03:12:41;8.10;99.90
9389;DHT22;4734;52.778;6.798;2024-03-29T03:15:28;8.10;99.90
9389;DHT22;4734;52.778;6.798;2024-03-29T03:18:13;8.10;99.90
9389;DHT22;4734;52.778;6.798;2024-03-29T03:20:59;8.10;99.90
9389;DHT22;4734;52.778;6.798;2024-03-29T03:23:44;8.10;99.90
9389;DHT22;4734;52.778;6.798;2024-03-29T03:26:30;8.10;99.90
9389;DHT22;4734;52.778;6.798;2024-03-29T03:29:14;8.10;99.90
9389;DHT22;4734;52.778;6.798;2024-03-29T03:32:01;8.00;99.90
9389;DHT22;4734;52.778;6.798;2024-03-29T03:34:46;8.00;99.90
9389;DHT22;4734;52.778;6.798;2024-03-29T03:37:32;8.00;99.90
9389;DHT22;4734;52.778;6.798;2024-03-29T03:40:16;8.00;99.90
9389;DHT22;4734;52.778;6.798;2024-03-29T03:43:02;8.00;99.90
9389;DHT22;4734;52.778;6.798;2024-03-29T03:45:47;8.00;99.90
9389;DHT22;4734;52.778;6.798;2024-03-29T03:48:34;8.00;99.90
9389;DHT22;4734;52.778;6.798;2024-03-29T03:51:18;8.10;99.90
9389;DHT22;4734;52.778;6.798;2024-03-29T03:54:04;8.00;99.90
9389;DHT22;4734;52.778;6.798;2024-03-29T03:56:48;8.00;99.90
9389;DHT22;4734;52.778;6.798;2024-03-29T03:59:34;8.00;99.90
9389;DHT22;4734;52.778;6.798;2024-03-29T04:02:19;8.00;99.90
9389;DHT22;4734;52.778;6.798;2024-03-29T04:05:07;8.00;99.90
9389;DHT22;4734;52.778;6.798;2024-03-29T04:07:52;8.00;99.90
9389;DHT22;4734;52.778;6.798;2024-03-29T04:10:38;8.10;99.90
9389;DHT22;4734;52.778;6.798;2024-03-29T04:13:23;8.10;99.90
9389;DHT22;4734;52.778;6.798;2024-03-29T04:16:08;8.10;99.90
9389;DHT22;4734;52.778;6.798;2024-03-29T04:18:53;8.10;99.90
9389;DHT22;4734;52.778;6.798;2024-03-29T04:21:40;8.10;99.90
9389;DHT22;4734;52.778;6.798;2024-03-29T04:24:24;8.10;99.90
9389;DHT22;4734;52.778;6.798;2024-03-29T04:27:10;8.10;99.90
9389;DHT22;4734;52.778;6.798;2024-03-29T04:29:55;8.10;99.90
9389;DHT22;4734;52.778;6.798;2024-03-29T04:32:40;8.10;99.90
9389;DHT22;4734;52.778;6.798;2024-03-29T04:35:25;8.10;99.90
9389;DHT22;4734;52.778;6.798;2024-03-29T04:38:12;8.10;99.90
9389;DHT22;4734;52.778;6.798;2024-03-29T04:40:58;8.10;99.90
9389;DHT22;4734;52.778;6.798;2024-03-29T04:43:44;8.10;99.90
9389;DHT22;4734;52.778;6.798;2024-03-29T04:46:30;8.10;99.90
9389;DHT22;4734;52.778;6.798;2024-03-29T04:49:18;8.10;99.90
9389;DHT22;4734;52.778;6.798;2024-03-29T04:52:06;8.10;99.90
9389;DHT22;4734;52.778;6.798;2024-03-29T04:54:53;8.20;99.90
9389;DHT22;4734;52.778;6.798;2024-03-29T04:57:38;8.10;99.90
9389;DHT22;4734;52.778;6.798;2024-03-29T05:00:24;8.20;99.90
9389;DHT22;4734;52.778;6.798;2024-03-29T05:03:10;8.20;99.90
9389;DHT22;4734;52.778;6.798;2024-03-29T05:05:56;8.20;99.90
9389;DHT22;4734;52.778;6.798;2024-03-29T05:08:42;8.20;99.90
9389;DHT22;4734;52.778;6.798;2024-03-29T05:11:29;8.20;99.90
9389;DHT22;4734;52.778;6.798;2024-03-29T05:14:14;8.20;99.90
9389;DHT22;4734;52.778;6.798;2024-03-29T05:17:01;8.20;99.90
9389;DHT22;4734;52.778;6.798;2024-03-29T05:19:46;8.20;99.90
9389;DHT22;4734;52.778;6.798;2024-03-29T05:22:32;8.20;99.90
9389;DHT22;4734;52.778;6.798;2024-03-29T05:25:17;8.30;99.90
9389;DHT22;4734;52.778;6.798;2024-03-29T05:28:05;8.20;99.90
9389;DHT22;4734;52.778;6.798;2024-03-29T05:30:51;8.30;99.90
9389;DHT22;4734;52.778;6.798;2024-03-29T05:33:37;8.20;99.90
9389;DHT22;4734;52.778;6.798;2024-03-29T05:36:23;8.30;99.90
9389;DHT22;4734;52.778;6.798;2024-03-29T05:39:08;8.30;99.90
9389;DHT22;4734;52.778;6.798;2024-03-29T05:41:54;8.30;99.90
9389;DHT22;4734;52.778;6.798;2024-03-29T05:44:41;8.30;99.90
9389;DHT22;4734;52.778;6.798;2024-03-29T05:47:26;8.30;99.90
9389;DHT22;4734;52.778;6.798;2024-03-29T05:50:12;8.30;99.90
9389;DHT22;4734;52.778;6.798;2024-03-29T05:52:58;8.40;99.90
9389;DHT22;4734;52.778;6.798;2024-03-29T05:55:45;8.40;99.90
9389;DHT22;4734;52.778;6.798;2024-03-29T05:58:31;8.40;99.90
9389;DHT22;4734;52.778;6.798;2024-03-29T06:01:18;8.40;99.90
9389;DHT22;4734;52.778;6.798;2024-03-29T06:04:03;8.40;99.90
9389;DHT22;4734;52.778;6.798;2024-03-29T06:06:57;8.40;99.90
9389;DHT22;4734;52.778;6.798;2024-03-29T06:09:43;8.40;99.90
9389;DHT22;4734;52.778;6.798;2024-03-29T06:12:29;8.50;99.90
9389;DHT22;4734;52.778;6.798;2024-03-29T06:15:15;8.50;99.90
9389;DHT22;4734;52.778;6.798;2024-03-29T06:18:20;8.50;99.90
9389;DHT22;4734;52.778;6.798;2024-03-29T06:21:05;8.50;99.90
9389;DHT22;4734;52.778;6.798;2024-03-29T06:23:50;8.50;99.90
9389;DHT22;4734;52.778;6.798;2024-03-29T06:26:36;8.50;99.90
9389;DHT22;4734;52.778;6.798;2024-03-29T06:29:22;8.50;99.90
9389;DHT22;4734;52.778;6.798;2024-03-29T06:32:07;8.50;99.90
9389;DHT22;4734;52.778;6.798;2024-03-29T06:34:54;8.50;99.90
9389;DHT22;4734;52.778;6.798;2024-03-29T06:37:40;8.60;99.90
9389;DHT22;4734;52.778;6.798;2024-03-29T06:40:26;8.60;99.90
9389;DHT22;4734;52.778;6.798;2024-03-29T06:43:12;8.60;99.90
9389;DHT22;4734;52.778;6.798;2024-03-29T06:45:57;8.60;99.90
9389;DHT22;4734;52.778;6.798;2024-03-29T06:48:43;8.60;99.90
9389;DHT22;4734;52.778;6.798;2024-03-29T06:51:30;8.60;99.90
9389;DHT22;4734;52.778;6.798;2024-03-29T06:54:16;8.60;99.90
9389;DHT22;4734;52.778;6.798;2024-03-29T06:57:06;8.60;99.90
9389;DHT22;4734;52.778;6.798;2024-03-29T06:59:52;8.60;99.90
9389;DHT22;4734;52.778;6.798;2024-03-29T07:02:38;8.60;99.90
9389;DHT22;4734;52.778;6.798;2024-03-29T07:05:24;8.60;99.90
9389;DHT22;4734;52.778;6.798;2024-03-29T07:08:11;8.60;99.90
9389;DHT22;4734;52.778;6.798;2024-03-29T07:10:59;8.70;99.90
9389;DHT22;4734;52.778;6.798;2024-03-29T07:13:45;8.60;99.90
9389;DHT22;4734;52.778;6.798;2024-03-29T07:16:31;8.70;99.90
9389;DHT22;4734;52.778;6.798;2024-03-29T07:19:17;8.60;99.90
9389;DHT22;4734;52.778;6.798;2024-03-29T07:22:03;8.70;99.90
9389;DHT22;4734;52.778;6.798;2024-03-29T07:24:50;8.70;99.90
9389;DHT22;4734;52.778;6.798;2024-03-29T07:27:35;8.70;99.90
9389;DHT22;4734;52.778;6.798;2024-03-29T07:30:20;8.70;99.90
9389;DHT22;4734;52.778;6.798;2024-03-29T07:33:06;8.70;99.90
9389;DHT22;4734;52.778;6.798;2024-03-29T07:35:53;8.70;99.90
9389;DHT22;4734;52.778;6.798;2024-03-29T07:38:39;8.70;99.90
9389;DHT22;4734;52.778;6.798;2024-03-29T07:41:26;8.70;99.90
9389;DHT22;4734;52.778;6.798;2024-03-29T07:44:11;8.70;99.90
9389;DHT22;4734;52.778;6.798;2024-03-29T07:46:57;8.70;99.90
9389;DHT22;4734;52.778;6.798;2024-03-29T07:49:42;8.70;99.90
9389;DHT22;4734;52.778;6.798;2024-03-29T07:52:28;8.70;99.90
9389;DHT22;4734;52.778;6.798;2024-03-29T07:55:14;8.80;99.90
9389;DHT22;4734;52.778;6.798;2024-03-29T07:58:01;8.70;99.90
9389;DHT22;4734;52.778;6.798;2024-03-29T08:00:47;8.80;99.90
9389;DHT22;4734;52.778;6.798;2024-03-29T08:03:33;8.80;99.90
9389;DHT22;4734;52.778;6.798;2024-03-29T08:06:19;8.80;99.90
9389;DHT22;4734;52.778;6.798;2024-03-29T08:09:07;8.80;99.90
9389;DHT22;4734;52.778;6.798;2024-03-29T08:11:53;8.80;99.90
9389;DHT22;4734;52.778;6.798;2024-03-29T08:17:58;8.90;99.90
9389;DHT22;4734;52.778;6.798;2024-03-29T08:20:44;8.90;99.90
9389;DHT22;4734;52.778;6.798;2024-03-29T08:23:29;8.90;99.90
9389;DHT22;4734;52.778;6.798;2024-03-29T08:26:15;8.90;99.90
9389;DHT22;4734;52.778;6.798;2024-03-29T08:29:00;8.90;99.90
9389;DHT22;4734;52.778;6.798;2024-03-29T08:31:46;8.90;99.90
9389;DHT22;4734;52.778;6.798;2024-03-29T08:34:33;8.90;99.90
9389;DHT22;4734;52.778;6.798;2024-03-29T08:37:19;8.90;99.90
9389;DHT22;4734;52.778;6.798;2024-03-29T08:40:05;9.00;99.90
9389;DHT22;4734;52.778;6.798;2024-03-29T08:42:51;9.00;99.90
9389;DHT22;4734;52.778;6.798;2024-03-29T08:45:36;9.00;99.90
9389;DHT22;4734;52.778;6.798;2024-03-29T08:48:27;9.00;99.90
9389;DHT22;4734;52.778;6.798;2024-03-29T08:51:14;9.10;99.90
9389;DHT22;4734;52.778;6.798;2024-03-29T08:54:00;9.10;99.90
9389;DHT22;4734;52.778;6.798;2024-03-29T08:56:49;9.10;99.90
9389;DHT22;4734;52.778;6.798;2024-03-29T08:59:34;9.10;99.90
9389;DHT22;4734;52.778;6.798;2024-03-29T09:02:20;9.10;99.90
9389;DHT22;4734;52.778;6.798;2024-03-29T09:05:06;9.10;99.90
9389;DHT22;4734;52.778;6.798;2024-03-29T09:07:53;9.10;99.90
9389;DHT22;4734;52.778;6.798;2024-03-29T09:10:38;9.20;99.90
9389;DHT22;4734;52.778;6.798;2024-03-29T09:13:24;9.20;99.90
9389;DHT22;4734;52.778;6.798;2024-03-29T09:16:10;9.20;99.90
9389;DHT22;4734;52.778;6.798;2024-03-29T09:18:55;9.20;99.90
9389;DHT22;4734;52.778;6.798;2024-03-29T09:21:41;9.20;99.90
9389;DHT22;4734;52.778;6.798;2024-03-29T09:24:28;9.20;99.90
9389;DHT22;4734;52.778;6.798;2024-03-29T09:27:13;9.20;99.90
9389;DHT22;4734;52.778;6.798;2024-03-29T09:29:59;9.30;99.90
9389;DHT22;4734;52.778;6.798;2024-03-29T09:32:45;9.30;99.90
9389;DHT22;4734;52.778;6.798;2024-03-29T09:35:32;9.30;99.90
9389;DHT22;4734;52.778;6.798;2024-03-29T09:38:17;9.30;99.90
9389;DHT22;4734;52.778;6.798;2024-03-29T09:41:14;9.40;99.90
9389;DHT22;4734;52.778;6.798;2024-03-29T09:44:03;9.40;99.90
9389;DHT22;4734;52.778;6.798;2024-03-29T09:46:49;9.40;99.90
9389;DHT22;4734;52.778;6.798;2024-03-29T09:49:35;9.40;99.90
9389;DHT22;4734;52.778;6.798;2024-03-29T09:52:21;9.50;99.90
9389;DHT22;4734;52.778;6.798;2024-03-29T09:55:08;9.50;99.90
9389;DHT22;4734;52.778;6.798;2024-03-29T09:57:56;9.60;99.90
9389;DHT22;4734;52.778;6.798;2024-03-29T10:00:41;9.70;99.90
9389;DHT22;4734;52.778;6.798;2024-03-29T10:03:28;9.80;99.90
9389;DHT22;4734;52.778;6.798;2024-03-29T10:06:15;9.80;99.90
9389;DHT22;4734;52.778;6.798;2024-03-29T10:09:04;9.90;99.90
9389;DHT22;4734;52.778;6.798;2024-03-29T10:11:49;10.00;99.90
9389;DHT22;4734;52.778;6.798;2024-03-29T10:14:45;10.10;99.90
9389;DHT22;4734;52.778;6.798;2024-03-29T10:17:33;10.20;99.90
9389;DHT22;4734;52.778;6.798;2024-03-29T10:20:19;10.30;99.90
9389;DHT22;4734;52.778;6.798;2024-03-29T10:23:06;10.40;99.90
9389;DHT22;4734;52.778;6.798;2024-03-29T10:25:52;10.50;99.90
9389;DHT22;4734;52.778;6.798;2024-03-29T10:28:39;10.60;99.90
9389;DHT22;4734;52.778;6.798;2024-03-29T10:31:26;10.70;99.90
9389;DHT22;4734;52.778;6.798;2024-03-29T10:34:11;10.80;99.90
9389;DHT22;4734;52.778;6.798;2024-03-29T10:36:57;10.90;99.90
9389;DHT22;4734;52.778;6.798;2024-03-29T10:39:43;11.00;99.90
9389;DHT22;4734;52.778;6.798;2024-03-29T10:42:29;11.10;99.90
9389;DHT22;4734;52.778;6.798;2024-03-29T10:45:17;11.20;99.90
9389;DHT22;4734;52.778;6.798;2024-03-29T10:48:06;11.30;99.90
9389;DHT22;4734;52.778;6.798;2024-03-29T10:50:54;11.30;99.90
9389;DHT22;4734;52.778;6.798;2024-03-29T10:53:41;11.40;99.90
9389;DHT22;4734;52.778;6.798;2024-03-29T10:56:29;11.50;99.90
9389;DHT22;4734;52.778;6.798;2024-03-29T10:59:21;11.50;99.90
9389;DHT22;4734;52.778;6.798;2024-03-29T11:02:13;11.60;99.90
9389;DHT22;4734;52.778;6.798;2024-03-29T11:05:12;11.60;99.90
9389;DHT22;4734;52.778;6.798;2024-03-29T11:07:59;11.70;99.90
9389;DHT22;4734;52.778;6.798;2024-03-29T11:10:47;11.70;99.90
9389;DHT22;4734;52.778;6.798;2024-03-29T11:13:40;11.70;99.90
9389;DHT22;4734;52.778;6.798;2024-03-29T11:16:31;11.80;99.90
9389;DHT22;4734;52.778;6.798;2024-03-29T11:19:17;11.80;99.90
9389;DHT22;4734;52.778;6.798;2024-03-29T11:22:05;11.90;99.90
9389;DHT22;4734;52.778;6.798;2024-03-29T11:24:51;11.90;99.90
9389;DHT22;4734;52.778;6.798;2024-03-29T11:27:36;11.90;99.90
9389;DHT22;4734;52.778;6.798;2024-03-29T11:30:22;11.90;99.90
9389;DHT22;4734;52.778;6.798;2024-03-29T11:33:08;12.00;99.90
9389;DHT22;4734;52.778;6.798;2024-03-29T11:35:53;12.00;99.90
9389;DHT22;4734;52.778;6.798;2024-03-29T11:38:40;12.00;99.90
9389;DHT22;4734;52.778;6.798;2024-03-29T11:41:27;12.00;99.90
9389;DHT22;4734;52.778;6.798;2024-03-29T11:44:14;12.10;99.90
9389;DHT22;4734;52.778;6.798;2024-03-29T11:47:00;12.10;99.90
9389;DHT22;4734;52.778;6.798;2024-03-29T11:49:55;12.10;99.90
9389;DHT22;4734;52.778;6.798;2024-03-29T11:52:41;12.20;99.90
9389;DHT22;4734;52.778;6.798;2024-03-29T11:55:29;12.30;99.90
9389;DHT22;4734;52.778;6.798;2024-03-29T11:58:15;12.30;99.90
9389;DHT22;4734;52.778;6.798;2024-03-29T12:01:01;12.30;99.90
9389;DHT22;4734;52.778;6.798;2024-03-29T12:04:02;12.40;99.90
9389;DHT22;4734;52.778;6.798;2024-03-29T12:06:47;12.40;99.90
9389;DHT22;4734;52.778;6.798;2024-03-29T12:09:49;12.50;99.90
9389;DHT22;4734;52.778;6.798;2024-03-29T12:12:36;12.60;99.90
9389;DHT22;4734;52.778;6.798;2024-03-29T12:15:23;12.60;99.90
9389;DHT22;4734;52.778;6.798;2024-03-29T12:18:08;12.70;99.90
9389;DHT22;4734;52.778;6.798;2024-03-29T12:20:55;12.80;99.90
9389;DHT22;4734;52.778;6.798;2024-03-29T12:23:47;12.80;99.90
9389;DHT22;4734;52.778;6.798;2024-03-29T12:26:33;12.90;99.90
9389;DHT22;4734;52.778;6.798;2024-03-29T12:29:20;12.90;99.90
9389;DHT22;4734;52.778;6.798;2024-03-29T12:32:06;13.00;99.90
9389;DHT22;4734;52.778;6.798;2024-03-29T12:34:53;13.00;99.90
9389;DHT22;4734;52.778;6.798;2024-03-29T12:37:47;13.00;99.90
9389;DHT22;4734;52.778;6.798;2024-03-29T12:40:33;13.00;99.90
9389;DHT22;4734;52.778;6.798;2024-03-29T12:43:22;13.00;99.90
9389;DHT22;4734;52.778;6.798;2024-03-29T12:46:09;13.10;99.90
9389;DHT22;4734;52.778;6.798;2024-03-29T12:48:59;13.10;99.90
9389;DHT22;4734;52.778;6.798;2024-03-29T12:51:44;13.10;99.90
9389;DHT22;4734;52.778;6.798;2024-03-29T12:54:30;13.10;99.90
9389;DHT22;4734;52.778;6.798;2024-03-29T12:57:15;13.10;99.90
9389;DHT22;4734;52.778;6.798;2024-03-29T13:00:01;13.10;99.90
9389;DHT22;4734;52.778;6.798;2024-03-29T13:02:49;13.10;99.90
9389;DHT22;4734;52.778;6.798;2024-03-29T13:05:35;13.10;99.90
9389;DHT22;4734;52.778;6.798;2024-03-29T13:08:24;13.10;99.90
9389;DHT22;4734;52.778;6.798;2024-03-29T13:11:10;13.10;99.90
9389;DHT22;4734;52.778;6.798;2024-03-29T13:13:56;13.10;99.90
9389;DHT22;4734;52.778;6.798;2024-03-29T13:16:41;13.10;99.90
9389;DHT22;4734;52.778;6.798;2024-03-29T13:19:28;13.20;99.90
9389;DHT22;4734;52.778;6.798;2024-03-29T13:22:14;13.20;99.90
9389;DHT22;4734;52.778;6.798;2024-03-29T13:24:59;13.20;99.90
9389;DHT22;4734;52.778;6.798;2024-03-29T13:27:46;13.30;99.90
9389;DHT22;4734;52.778;6.798;2024-03-29T13:30:33;13.30;99.90
9389;DHT22;4734;52.778;6.798;2024-03-29T13:33:21;13.30;99.90
9389;DHT22;4734;52.778;6.798;2024-03-29T13:36:08;13.40;99.90
9389;DHT22;4734;52.778;6.798;2024-03-29T13:38:57;13.40;99.90
9389;DHT22;4734;52.778;6.798;2024-03-29T13:41:42;13.50;99.90
9389;DHT22;4734;52.778;6.798;2024-03-29T13:44:28;13.50;99.90
9389;DHT22;4734;52.778;6.798;2024-03-29T13:47:14;13.60;99.90
9389;DHT22;4734;52.778;6.798;2024-03-29T13:50:00;13.70;99.90
9389;DHT22;4734;52.778;6.798;2024-03-29T13:52:47;13.80;99.90
9389;DHT22;4734;52.778;6.798;2024-03-29T13:55:32;13.80;99.90
9389;DHT22;4734;52.778;6.798;2024-03-29T13:58:18;13.90;99.90
9389;DHT22;4734;52.778;6.798;2024-03-29T14:01:04;13.90;99.90
9389;DHT22;4734;52.778;6.798;2024-03-29T14:03:49;14.00;99.90
9389;DHT22;4734;52.778;6.798;2024-03-29T14:06:37;14.10;99.90
9389;DHT22;4734;52.778;6.798;2024-03-29T14:09:24;14.10;99.90
9389;DHT22;4734;52.778;6.798;2024-03-29T14:12:09;14.30;99.90
9389;DHT22;4734;52.778;6.798;2024-03-29T14:14:55;14.30;99.90
9389;DHT22;4734;52.778;6.798;2024-03-29T14:17:41;14.40;99.90
9389;DHT22;4734;52.778;6.798;2024-03-29T14:20:27;14.50;99.90
9389;DHT22;4734;52.778;6.798;2024-03-29T14:23:13;14.50;99.90
9389;DHT22;4734;52.778;6.798;2024-03-29T14:26:04;14.60;99.90
9389;DHT22;4734;52.778;6.798;2024-03-29T14:28:49;14.70;99.90
9389;DHT22;4734;52.778;6.798;2024-03-29T14:31:35;14.70;99.90
9389;DHT22;4734;52.778;6.798;2024-03-29T14:34:21;14.70;99.90
9389;DHT22;4734;52.778;6.798;2024-03-29T14:37:07;14.80;99.90
9389;DHT22;4734;52.778;6.798;2024-03-29T14:39:57;14.80;99.90
9389;DHT22;4734;52.778;6.798;2024-03-29T14:42:44;14.80;99.90
9389;DHT22;4734;52.778;6.798;2024-03-29T14:45:31;14.80;99.90
9389;DHT22;4734;52.778;6.798;2024-03-29T14:48:16;14.80;99.90
9389;DHT22;4734;52.778;6.798;2024-03-29T14:51:02;14.90;99.90
9389;DHT22;4734;52.778;6.798;2024-03-29T14:53:48;14.90;99.90
9389;DHT22;4734;52.778;6.798;2024-03-29T14:56:34;14.90;99.90
9389;DHT22;4734;52.778;6.798;2024-03-29T14:59:21;14.90;99.90
9389;DHT22;4734;52.778;6.798;2024-03-29T15:02:06;14.90;99.90
9389;DHT22;4734;52.778;6.798;2024-03-29T15:04:52;15.00;99.90
9389;DHT22;4734;52.778;6.798;2024-03-29T15:07:38;15.00;99.90
9389;DHT22;4734;52.778;6.798;2024-03-29T15:10:24;15.00;99.90
9389;DHT22;4734;52.778;6.798;2024-03-29T15:13:10;15.00;99.90
9389;DHT22;4734;52.778;6.798;2024-03-29T15:15:57;15.00;99.90
9389;DHT22;4734;52.778;6.798;2024-03-29T15:18:42;15.00;99.90
9389;DHT22;4734;52.778;6.798;2024-03-29T15:21:28;15.00;99.90
9389;DHT22;4734;52.778;6.798;2024-03-29T15:24:15;15.00;99.90
9389;DHT22;4734;52.778;6.798;2024-03-29T15:27:01;15.00;99.90
9389;DHT22;4734;52.778;6.798;2024-03-29T15:29:47;15.00;99.90
9389;DHT22;4734;52.778;6.798;2024-03-29T15:32:33;15.00;99.90
9389;DHT22;4734;52.778;6.798;2024-03-29T15:35:19;15.00;99.90
9389;DHT22;4734;52.778;6.798;2024-03-29T15:38:06;15.00;99.90
9389;DHT22;4734;52.778;6.798;2024-03-29T15:40:55;15.00;99.90
9389;DHT22;4734;52.778;6.798;2024-03-29T15:43:41;15.00;99.90
9389;DHT22;4734;52.778;6.798;2024-03-29T15:46:27;15.00;99.90
9389;DHT22;4734;52.778;6.798;2024-03-29T15:49:14;15.00;99.90
9389;DHT22;4734;52.778;6.798;2024-03-29T15:51:59;15.00;99.90
9389;DHT22;4734;52.778;6.798;2024-03-29T15:54:45;14.90;99.90
9389;DHT22;4734;52.778;6.798;2024-03-29T15:57:30;15.00;99.90
9389;DHT22;4734;52.778;6.798;2024-03-29T16:00:16;14.90;99.90
9389;DHT22;4734;52.778;6.798;2024-03-29T16:03:02;14.90;99.90
9389;DHT22;4734;52.778;6.798;2024-03-29T16:05:50;14.90;99.90
9389;DHT22;4734;52.778;6.798;2024-03-29T16:08:37;14.90;99.90
9389;DHT22;4734;52.778;6.798;2024-03-29T16:11:23;14.90;99.90
9389;DHT22;4734;52.778;6.798;2024-03-29T16:14:09;14.90;99.90
9389;DHT22;4734;52.778;6.798;2024-03-29T16:16:54;14.90;99.90
9389;DHT22;4734;52.778;6.798;2024-03-29T16:19:40;14.90;99.90
9389;DHT22;4734;52.778;6.798;2024-03-29T16:22:26;14.90;99.90
9389;DHT22;4734;52.778;6.798;2024-03-29T16:25:12;14.80;99.90
9389;DHT22;4734;52.778;6.798;2024-03-29T16:27:56;14.80;99.90
9389;DHT22;4734;52.778;6.798;2024-03-29T16:30:42;14.80;99.90
9389;DHT22;4734;52.778;6.798;2024-03-29T16:33:27;14.80;99.90
9389;DHT22;4734;52.778;6.798;2024-03-29T16:36:12;14.80;99.90
9389;DHT22;4734;52.778;6.798;2024-03-29T16:38:58;14.70;99.90
9389;DHT22;4734;52.778;6.798;2024-03-29T16:41:44;14.70;99.90
9389;DHT22;4734;52.778;6.798;2024-03-29T16:44:30;14.70;99.90
9389;DHT22;4734;52.778;6.798;2024-03-29T16:47:15;14.70;99.90
9389;DHT22;4734;52.778;6.798;2024-03-29T16:50:00;14.70;99.90
9389;DHT22;4734;52.778;6.798;2024-03-29T16:52:46;14.70;99.90
9389;DHT22;4734;52.778;6.798;2024-03-29T16:55:32;14.60;99.90
9389;DHT22;4734;52.778;6.798;2024-03-29T16:58:18;14.60;99.90
9389;DHT22;4734;52.778;6.798;2024-03-29T17:01:03;14.60;99.90
9389;DHT22;4734;52.778;6.798;2024-03-29T17:03:49;14.50;99.90
9389;DHT22;4734;52.778;6.798;2024-03-29T17:06:33;14.50;99.90
9389;DHT22;4734;52.778;6.798;2024-03-29T17:09:34;14.50;99.90
9389;DHT22;4734;52.778;6.798;2024-03-29T17:12:20;14.50;99.90
9389;DHT22;4734;52.778;6.798;2024-03-29T17:15:06;14.50;99.90
9389;DHT22;4734;52.778;6.798;2024-03-29T17:17:50;14.40;99.90
9389;DHT22;4734;52.778;6.798;2024-03-29T17:20:36;14.40;99.90
9389;DHT22;4734;52.778;6.798;2024-03-29T17:23:20;14.40;99.90
9389;DHT22;4734;52.778;6.798;2024-03-29T17:26:06;14.30;99.90
9389;DHT22;4734;52.778;6.798;2024-03-29T17:28:52;14.30;99.90
9389;DHT22;4734;52.778;6.798;2024-03-29T17:31:38;14.30;99.90
9389;DHT22;4734;52.778;6.798;2024-03-29T17:34:24;14.20;99.90
9389;DHT22;4734;52.778;6.798;2024-03-29T17:37:09;14.20;99.90
9389;DHT22;4734;52.778;6.798;2024-03-29T17:39:54;14.20;99.90
9389;DHT22;4734;52.778;6.798;2024-03-29T17:42:40;14.10;99.90
9389;DHT22;4734;52.778;6.798;2024-03-29T17:45:26;14.10;99.90
9389;DHT22;4734;52.778;6.798;2024-03-29T17:48:11;14.10;99.90
9389;DHT22;4734;52.778;6.798;2024-03-29T17:50:56;14.00;99.90
9389;DHT22;4734;52.778;6.798;2024-03-29T17:53:41;14.00;99.90
9389;DHT22;4734;52.778;6.798;2024-03-29T17:56:26;13.90;99.90
9389;DHT22;4734;52.778;6.798;2024-03-29T17:59:12;13.90;99.90
9389;DHT22;4734;52.778;6.798;2024-03-29T18:02:00;13.80;99.90
9389;DHT22;4734;52.778;6.798;2024-03-29T18:04:45;13.80;99.90
9389;DHT22;4734;52.778;6.798;2024-03-29T18:07:30;13.70;99.90
9389;DHT22;4734;52.778;6.798;2024-03-29T18:10:15;13.70;99.90
9389;DHT22;4734;52.778;6.798;2024-03-29T18:13:01;13.60;99.90
9389;DHT22;4734;52.778;6.798;2024-03-29T18:15:47;13.60;99.90
9389;DHT22;4734;52.778;6.798;2024-03-29T18:18:33;13.50;99.90